Time;durP1;ratioP1;P1;durP2;ratioP2;P2;SDS_P1;SDS_P2;PMS_P1;PMS_P2;Temp;Humidity;BMP_temperature;BMP_pressure;BME280_temperature;BME280_humidity;BME280_pressure;Samples;Min_cycle;Max_cycle;Signal;HPM_P1;HPM_P2
2021/06/26 00:00:11;;;;;;;37.45;9.82;;;;;;;;;;4986674;28;20051;-84
2021/06/26 00:02:37;;;;;;;54.20;10.73;;;;;;;;;;4987083;28;20246;-84
2021/06/26 00:05:04;;;;;;;27.10;8.57;;;;;;;;;;4985377;28;20143;-80
2021/06/26 00:07:30;;;;;;;30.88;10.23;;;;;;;;;;4986996;28;20076;-81
2021/06/26 00:09:57;;;;;;;31.63;9.15;;;;;;;;;;4986226;28;20518;-82
2021/06/26 00:12:23;;;;;;;34.33;10.25;;;;;;;;;;4986799;28;20467;-79
2021/06/26 00:14:49;;;;;;;28.25;9.15;;;;;;;;;;4988671;28;20432;-80
2021/06/26 00:17:16;;;;;;;30.60;9.65;;;;;;;;;;4990119;28;20025;-81
2021/06/26 00:19:42;;;;;;;24.75;8.75;;;;;;;;;;4972751;28;20022;-84
2021/06/26 00:22:08;;;;;;;43.22;10.73;;;;;;;;;;4990397;28;20029;-81
2021/06/26 00:24:34;;;;;;;38.63;9.68;;;;;;;;;;4989268;28;20441;-81
2021/06/26 00:27:00;;;;;;;30.02;9.13;;;;;;;;;;4989972;28;20061;-81
2021/06/26 00:29:26;;;;;;;30.40;9.48;;;;;;;;;;4990274;28;20106;-84
2021/06/26 00:31:54;;;;;;;28.83;9.10;;;;;;;;;;4990060;28;20042;-84
2021/06/26 00:34:20;;;;;;;25.25;8.88;;;;;;;;;;4990078;28;20104;-82
2021/06/26 00:36:46;;;;;;;29.30;9.30;;;;;;;;;;4988373;28;20070;-84
2021/06/26 00:39:13;;;;;;;34.88;9.02;;;;;;;;;;4989923;28;20490;-83
2021/06/26 00:41:39;;;;;;;26.50;9.82;;;;;;;;;;4990498;28;20038;-84
2021/06/26 00:44:11;;;;;;;31.85;8.70;;;;;;;;;;4990134;28;20014;-81
2021/06/26 00:46:37;;;;;;;31.90;9.40;;;;;;;;;;4988456;28;20036;-83
2021/06/26 00:49:04;;;;;;;27.42;9.13;;;;;;;;;;4989527;28;20015;-83
2021/06/26 00:51:30;;;;;;;37.08;8.20;;;;;;;;;;4989778;28;20030;-83
2021/06/26 00:53:57;;;;;;;27.58;8.82;;;;;;;;;;4989836;28;20129;-81
2021/06/26 00:56:24;;;;;;;32.88;8.75;;;;;;;;;;4989265;28;20268;-81
2021/06/26 00:58:50;;;;;;;31.67;8.57;;;;;;;;;;4987889;28;20026;-84
2021/06/26 01:01:16;;;;;;;28.13;8.70;;;;;;;;;;4989770;28;20034;-80
2021/06/26 01:03:45;;;;;;;26.08;8.48;;;;;;;;;;4971444;28;20015;-79
2021/06/26 01:06:11;;;;;;;35.53;8.52;;;;;;;;;;4980640;28;20592;-81
2021/06/26 01:08:38;;;;;;;27.05;8.93;;;;;;;;;;4989144;28;20062;-79
2021/06/26 01:11:04;;;;;;;28.98;9.25;;;;;;;;;;4987683;28;20030;-83
2021/06/26 01:13:32;;;;;;;25.60;9.82;;;;;;;;;;4988999;28;20043;-84
2021/06/26 01:15:58;;;;;;;26.50;9.35;;;;;;;;;;4998975;28;20042;-80
2021/06/26 01:18:24;;;;;;;28.38;9.77;;;;;;;;;;5008696;28;20017;-79
2021/06/26 01:20:51;;;;;;;34.13;9.27;;;;;;;;;;5008736;28;20026;-84
2021/06/26 01:23:18;;;;;;;35.67;10.55;;;;;;;;;;5008460;28;20021;-83
2021/06/26 01:25:44;;;;;;;30.60;9.05;;;;;;;;;;4981811;28;20026;-79
2021/06/26 01:28:12;;;;;;;41.40;10.60;;;;;;;;;;5009800;28;20030;-80
2021/06/26 01:30:38;;;;;;;26.33;7.30;;;;;;;;;;5007773;28;20185;-83
2021/06/26 01:33:05;;;;;;;24.90;7.30;;;;;;;;;;5008199;28;20014;-82
2021/06/26 01:35:31;;;;;;;30.55;7.15;;;;;;;;;;4995165;28;20030;-82
2021/06/26 01:37:58;;;;;;;21.52;7.20;;;;;;;;;;5009529;28;20024;-82
2021/06/26 01:40:25;;;;;;;27.63;8.35;;;;;;;;;;4992036;28;20029;-83
2021/06/26 01:42:53;;;;;;;31.42;9.50;;;;;;;;;;5007647;28;20022;-82
2021/06/26 01:45:19;;;;;;;29.48;8.27;;;;;;;;;;5009628;28;20071;-83
2021/06/26 01:47:56;;;;;;;28.88;8.35;;;;;;;;;;5009021;28;20025;-81
2021/06/26 01:50:23;;;;;;;35.80;8.30;;;;;;;;;;5008453;28;20124;-82
2021/06/26 01:52:49;;;;;;;27.45;7.20;;;;;;;;;;5006221;28;20257;-78
2021/06/26 01:55:16;;;;;;;24.50;6.50;;;;;;;;;;5008343;28;20021;-82
2021/06/26 01:57:43;;;;;;;25.10;6.68;;;;;;;;;;5008338;28;20108;-82
2021/06/26 02:00:10;;;;;;;25.98;6.55;;;;;;;;;;5008215;28;20041;-82
2021/06/26 02:02:36;;;;;;;31.15;7.18;;;;;;;;;;5007837;28;20036;-79
2021/06/26 02:05:03;;;;;;;29.75;7.13;;;;;;;;;;5006203;28;20493;-81
2021/06/26 02:07:30;;;;;;;23.02;6.78;;;;;;;;;;5008122;28;20097;-78
2021/06/26 02:09:56;;;;;;;26.15;6.78;;;;;;;;;;4990167;28;20038;-78
2021/06/26 02:12:22;;;;;;;27.65;6.32;;;;;;;;;;5007984;28;20033;-82
2021/06/26 02:14:48;;;;;;;33.67;7.10;;;;;;;;;;5005790;28;20105;-79
2021/06/26 02:17:14;;;;;;;28.15;6.68;;;;;;;;;;5007699;28;20037;-82
2021/06/26 02:19:40;;;;;;;25.30;6.68;;;;;;;;;;5007705;28;20032;-80
2021/06/26 02:22:07;;;;;;;25.42;7.75;;;;;;;;;;5006221;28;20025;-81
2021/06/26 02:24:33;;;;;;;30.02;7.25;;;;;;;;;;5007568;28;20018;-81
2021/06/26 02:26:59;;;;;;;26.85;7.07;;;;;;;;;;5007540;28;20029;-83
2021/06/26 02:29:25;;;;;;;23.08;5.93;;;;;;;;;;5007626;28;20018;-84
2021/06/26 02:31:51;;;;;;;25.85;6.30;;;;;;;;;;5007562;28;20038;-83
2021/06/26 02:34:19;;;;;;;25.77;5.65;;;;;;;;;;5007657;28;20025;-84
2021/06/26 02:36:45;;;;;;;26.50;6.88;;;;;;;;;;4987534;28;20394;-84
2021/06/26 02:39:11;;;;;;;25.88;6.35;;;;;;;;;;5007811;28;20379;-83
2021/06/26 02:41:38;;;;;;;36.05;6.32;;;;;;;;;;5007384;28;20440;-83
2021/06/26 02:44:04;;;;;;;39.92;6.80;;;;;;;;;;5007214;28;20050;-78
2021/06/26 02:46:30;;;;;;;32.10;6.25;;;;;;;;;;5006910;28;20022;-84
2021/06/26 02:48:56;;;;;;;22.48;6.28;;;;;;;;;;5007529;28;20014;-83
2021/06/26 02:51:23;;;;;;;26.85;6.88;;;;;;;;;;5007674;28;20037;-82
2021/06/26 02:53:49;;;;;;;22.02;5.55;;;;;;;;;;5007358;28;20045;-81
2021/06/26 02:56:15;;;;;;;21.08;5.70;;;;;;;;;;4988216;28;20389;-83
2021/06/26 02:58:41;;;;;;;25.42;5.90;;;;;;;;;;5007349;28;20104;-83
2021/06/26 03:01:07;;;;;;;29.55;6.15;;;;;;;;;;5006955;28;20090;-83
2021/06/26 03:03:33;;;;;;;25.27;6.80;;;;;;;;;;4999924;28;20029;-83
2021/06/26 03:05:59;;;;;;;24.50;6.10;;;;;;;;;;5001866;28;20109;-84
2021/06/26 03:08:26;;;;;;;20.35;5.60;;;;;;;;;;5000947;28;20560;-81
2021/06/26 03:10:52;;;;;;;14.95;4.55;;;;;;;;;;5001873;28;20286;-83
2021/06/26 03:13:18;;;;;;;25.38;6.07;;;;;;;;;;5001955;28;20076;-83
2021/06/26 03:15:45;;;;;;;19.20;5.40;;;;;;;;;;5000487;28;20057;-79
2021/06/26 03:18:11;;;;;;;19.05;4.80;;;;;;;;;;5001850;28;20026;-83
2021/06/26 03:20:37;;;;;;;21.83;5.32;;;;;;;;;;5002484;28;20347;-84
2021/06/26 03:23:04;;;;;;;23.55;5.05;;;;;;;;;;5001669;28;20046;-82
2021/06/26 03:25:30;;;;;;;21.17;4.78;;;;;;;;;;5001019;28;20044;-83
2021/06/26 03:27:56;;;;;;;24.73;5.82;;;;;;;;;;5002231;28;20086;-82
2021/06/26 03:30:22;;;;;;;20.08;5.40;;;;;;;;;;5001715;28;20505;-84
2021/06/26 03:32:48;;;;;;;18.58;4.97;;;;;;;;;;4984151;28;20033;-84
2021/06/26 03:35:15;;;;;;;25.35;7.57;;;;;;;;;;5000658;28;20040;-82
2021/06/26 03:37:41;;;;;;;27.52;8.32;;;;;;;;;;5002125;28;20022;-83
2021/06/26 03:40:08;;;;;;;31.17;7.90;;;;;;;;;;5001646;28;20025;-80
2021/06/26 03:42:34;;;;;;;23.60;8.05;;;;;;;;;;5002044;28;20273;-80
2021/06/26 03:45:00;;;;;;;27.58;7.32;;;;;;;;;;5000199;28;20549;-82
2021/06/26 03:47:28;;;;;;;28.52;7.80;;;;;;;;;;5001356;28;20224;-81
2021/06/26 03:49:54;;;;;;;28.17;7.22;;;;;;;;;;4994292;28;20037;-80
2021/06/26 03:52:20;;;;;;;31.17;8.57;;;;;;;;;;5003296;28;20100;-79
2021/06/26 03:54:46;;;;;;;40.10;7.43;;;;;;;;;;5005437;28;20025;-81
2021/06/26 03:57:12;;;;;;;27.50;7.85;;;;;;;;;;5005272;28;20030;-83
2021/06/26 03:59:39;;;;;;;29.80;6.95;;;;;;;;;;5004161;28;20026;-79
2021/06/26 04:02:08;;;;;;;29.38;7.07;;;;;;;;;;5005954;28;20022;-80
2021/06/26 04:04:35;;;;;;;33.60;6.65;;;;;;;;;;5006486;28;20092;-83
2021/06/26 04:07:01;;;;;;;28.45;7.00;;;;;;;;;;5005660;28;20545;-83
2021/06/26 04:09:27;;;;;;;24.60;7.78;;;;;;;;;;5004351;28;20028;-82
2021/06/26 04:11:53;;;;;;;29.35;9.85;;;;;;;;;;5003747;28;20472;-81
2021/06/26 04:14:20;;;;;;;30.38;9.13;;;;;;;;;;5005245;28;20018;-82
2021/06/26 04:16:46;;;;;;;25.13;8.35;;;;;;;;;;5005074;28;20133;-82
2021/06/26 04:19:15;;;;;;;31.02;8.77;;;;;;;;;;5003229;28;20332;-82
2021/06/26 04:21:41;;;;;;;32.33;9.02;;;;;;;;;;5004961;28;20021;-82
2021/06/26 04:24:08;;;;;;;27.92;8.30;;;;;;;;;;5004976;28;20385;-84
2021/06/26 04:26:34;;;;;;;26.73;8.25;;;;;;;;;;5004669;28;20506;-79
2021/06/26 04:29:00;;;;;;;24.48;7.18;;;;;;;;;;5004961;28;20030;-82
2021/06/26 04:31:26;;;;;;;28.65;6.95;;;;;;;;;;5002076;28;20049;-79
2021/06/26 04:33:52;;;;;;;24.80;6.22;;;;;;;;;;5005068;28;20237;-82
2021/06/26 04:36:19;;;;;;;27.20;6.90;;;;;;;;;;5004839;28;20041;-80
2021/06/26 04:38:45;;;;;;;25.63;6.07;;;;;;;;;;5003009;28;20026;-82
2021/06/26 04:41:12;;;;;;;26.17;6.45;;;;;;;;;;5004447;28;20686;-79
2021/06/26 04:43:39;;;;;;;23.08;5.70;;;;;;;;;;5004978;28;20177;-82
2021/06/26 04:46:08;;;;;;;24.10;6.88;;;;;;;;;;4987247;28;20030;-82
2021/06/26 04:48:35;;;;;;;25.73;7.07;;;;;;;;;;5004372;28;20055;-83
2021/06/26 04:51:01;;;;;;;24.83;9.18;;;;;;;;;;5004078;28;20656;-84
2021/06/26 04:53:27;;;;;;;27.77;9.60;;;;;;;;;;5002949;28;20084;-81
2021/06/26 04:55:53;;;;;;;29.50;8.98;;;;;;;;;;5004087;28;20105;-83
2021/06/26 04:58:23;;;;;;;20.55;7.70;;;;;;;;;;5004718;28;20028;-83
2021/06/26 05:00:50;;;;;;;28.05;8.85;;;;;;;;;;5004551;28;20106;-83
2021/06/26 05:03:20;;;;;;;26.88;9.13;;;;;;;;;;5003355;28;20067;-80
2021/06/26 05:05:46;;;;;;;19.95;7.80;;;;;;;;;;4997834;28;20201;-85
2021/06/26 05:08:13;;;;;;;51.88;10.10;;;;;;;;;;5000346;28;20017;-78
2021/06/26 05:10:39;;;;;;;33.65;11.13;;;;;;;;;;4989112;28;20563;-79
2021/06/26 05:13:06;;;;;;;33.78;13.18;;;;;;;;;;4971659;28;20033;-78
2021/06/26 05:15:32;;;;;;;28.00;17.25;;;;;;;;;;4993648;28;20057;-78
2021/06/26 05:17:58;;;;;;;42.00;16.42;;;;;;;;;;5004286;28;20046;-77
2021/06/26 05:20:25;;;;;;;31.42;13.75;;;;;;;;;;5003131;28;20044;-77
2021/06/26 05:22:51;;;;;;;33.72;11.90;;;;;;;;;;5004108;28;20014;-77
2021/06/26 05:25:17;;;;;;;27.38;10.02;;;;;;;;;;4998108;28;20169;-77
2021/06/26 05:27:43;;;;;;;32.20;11.30;;;;;;;;;;4995560;28;20107;-78
2021/06/26 05:30:10;;;;;;;25.77;9.98;;;;;;;;;;5002257;28;20037;-77
2021/06/26 05:32:36;;;;;;;29.23;10.82;;;;;;;;;;4996237;28;20044;-77
2021/06/26 05:35:03;;;;;;;25.48;11.25;;;;;;;;;;5002157;28;20466;-78
2021/06/26 05:37:29;;;;;;;29.98;13.95;;;;;;;;;;5004190;28;20053;-77
2021/06/26 05:39:55;;;;;;;25.63;11.23;;;;;;;;;;5003833;28;20026;-75
2021/06/26 05:42:21;;;;;;;29.35;9.88;;;;;;;;;;4998790;28;20026;-77
2021/06/26 05:44:47;;;;;;;28.08;10.00;;;;;;;;;;5003516;28;20092;-78
2021/06/26 05:47:14;;;;;;;32.17;9.30;;;;;;;;;;4970291;28;20030;-77
2021/06/26 05:49:40;;;;;;;29.60;10.20;;;;;;;;;;4984144;28;20034;-77
2021/06/26 05:52:06;;;;;;;26.63;8.80;;;;;;;;;;4984722;28;20298;-76
2021/06/26 05:54:32;;;;;;;19.75;8.32;;;;;;;;;;4989764;28;20090;-77
2021/06/26 05:56:59;;;;;;;24.90;10.82;;;;;;;;;;4984386;28;20117;-76
2021/06/26 05:59:25;;;;;;;24.30;10.73;;;;;;;;;;4982942;28;20266;-77
2021/06/26 06:01:52;;;;;;;26.42;10.02;;;;;;;;;;4984137;28;20031;-79
2021/06/26 06:04:18;;;;;;;25.67;10.77;;;;;;;;;;4981150;28;20473;-79
2021/06/26 06:06:45;;;;;;;24.25;9.88;;;;;;;;;;4964984;28;20368;-77
2021/06/26 06:09:11;;;;;;;28.67;10.73;;;;;;;;;;4988954;28;20054;-78
2021/06/26 06:11:38;;;;;;;26.35;10.70;;;;;;;;;;4984048;28;20057;-82
2021/06/26 06:14:05;;;;;;;32.97;9.23;;;;;;;;;;4986226;28;20019;-79
2021/06/26 06:16:31;;;;;;;136.68;18.52;;;;;;;;;;4966318;28;20050;-78
2021/06/26 06:18:57;;;;;;;38.38;10.63;;;;;;;;;;4982991;28;20027;-77
2021/06/26 06:21:23;;;;;;;23.77;10.20;;;;;;;;;;4965847;28;20026;-81
2021/06/26 06:23:50;;;;;;;26.55;9.75;;;;;;;;;;4984761;28;20061;-82
2021/06/26 06:26:16;;;;;;;28.02;9.52;;;;;;;;;;4981486;28;20018;-83
2021/06/26 06:28:42;;;;;;;21.15;9.20;;;;;;;;;;4984473;28;20026;-83
2021/06/26 06:31:08;;;;;;;26.88;9.38;;;;;;;;;;4982012;28;20022;-82
2021/06/26 06:33:34;;;;;;;25.40;10.48;;;;;;;;;;4982644;28;20347;-82
2021/06/26 06:36:03;;;;;;;17.88;8.85;;;;;;;;;;4980629;28;20109;-81
2021/06/26 06:38:30;;;;;;;31.25;10.95;;;;;;;;;;4984078;28;20022;-82
2021/06/26 06:40:57;;;;;;;22.92;10.05;;;;;;;;;;4968298;28;20034;-82
2021/06/26 06:43:23;;;;;;;30.17;10.43;;;;;;;;;;4984944;28;20290;-82
2021/06/26 06:45:49;;;;;;;32.13;9.90;;;;;;;;;;4978855;28;20121;-82
2021/06/26 06:48:15;;;;;;;32.92;10.38;;;;;;;;;;4961567;28;20061;-84
2021/06/26 06:50:41;;;;;;;29.27;11.10;;;;;;;;;;4996297;28;20132;-83
2021/06/26 06:53:08;;;;;;;26.50;10.23;;;;;;;;;;4998215;28;20061;-83
2021/06/26 06:55:34;;;;;;;28.02;11.02;;;;;;;;;;4984713;28;20066;-82
2021/06/26 06:58:00;;;;;;;36.10;12.50;;;;;;;;;;4996764;28;20046;-82
2021/06/26 07:00:27;;;;;;;26.23;10.93;;;;;;;;;;4995831;28;20105;-82
2021/06/26 07:02:53;;;;;;;26.50;10.15;;;;;;;;;;4976014;28;20181;-83
2021/06/26 07:05:19;;;;;;;36.17;11.25;;;;;;;;;;4976333;28;20025;-82
2021/06/26 07:07:45;;;;;;;24.27;10.40;;;;;;;;;;4983541;28;20487;-82
2021/06/26 07:10:12;;;;;;;22.70;10.48;;;;;;;;;;4991781;28;20026;-83
2021/06/26 07:12:39;;;;;;;22.05;9.40;;;;;;;;;;4996442;28;20045;-82
2021/06/26 07:15:05;;;;;;;28.13;10.18;;;;;;;;;;4967520;28;20450;-81
2021/06/26 07:17:31;;;;;;;26.63;9.50;;;;;;;;;;4969862;28;20034;-82
2021/06/26 07:19:58;;;;;;;23.92;8.75;;;;;;;;;;4962756;28;20018;-82
2021/06/26 07:22:24;;;;;;;26.23;9.52;;;;;;;;;;4983736;28;20096;-82
2021/06/26 07:24:50;;;;;;;19.52;9.07;;;;;;;;;;4952642;28;20383;-83
2021/06/26 07:27:16;;;;;;;21.42;8.10;;;;;;;;;;4986335;28;20027;-83
2021/06/26 07:29:42;;;;;;;26.52;10.02;;;;;;;;;;4986655;28;20033;-82
2021/06/26 07:32:08;;;;;;;20.08;9.45;;;;;;;;;;4984003;28;20053;-82
2021/06/26 07:34:35;;;;;;;28.92;10.63;;;;;;;;;;4986388;28;20022;-81
2021/06/26 07:37:01;;;;;;;17.98;8.75;;;;;;;;;;4985789;28;20480;-81
2021/06/26 07:39:27;;;;;;;19.30;9.43;;;;;;;;;;4975951;28;20035;-82
2021/06/26 07:41:53;;;;;;;19.38;7.82;;;;;;;;;;4984442;28;20077;-82
2021/06/26 07:44:22;;;;;;;22.23;9.68;;;;;;;;;;4985823;28;20111;-82
2021/06/26 07:46:48;;;;;;;22.73;9.25;;;;;;;;;;4986275;28;20049;-81
2021/06/26 07:49:14;;;;;;;21.02;10.60;;;;;;;;;;4986602;28;20488;-78
2021/06/26 07:51:40;;;;;;;19.70;10.07;;;;;;;;;;4984030;28;20041;-78
2021/06/26 07:54:06;;;;;;;29.42;10.02;;;;;;;;;;4968918;28;20438;-77
2021/06/26 07:56:34;;;;;;;21.00;9.05;;;;;;;;;;4981133;28;20049;-79
2021/06/26 07:59:00;;;;;;;22.92;8.60;;;;;;;;;;4968976;28;20109;-78
2021/06/26 08:01:27;;;;;;;19.65;7.50;;;;;;;;;;4985542;28;20018;-78
2021/06/26 08:03:53;;;;;;;20.00;8.55;;;;;;;;;;4985740;28;20054;-78
2021/06/26 08:06:19;;;;;;;19.77;7.78;;;;;;;;;;4983965;28;20026;-78
2021/06/26 08:08:45;;;;;;;21.70;7.78;;;;;;;;;;4983211;28;20046;-79
2021/06/26 08:11:12;;;;;;;16.58;7.88;;;;;;;;;;4985836;28;20030;-79
2021/06/26 08:13:38;;;;;;;23.98;8.43;;;;;;;;;;4985339;28;20023;-79
2021/06/26 08:16:04;;;;;;;22.80;8.32;;;;;;;;;;4994530;28;20101;-80
2021/06/26 08:18:30;;;;;;;18.38;8.10;;;;;;;;;;5004320;28;20075;-80
2021/06/26 08:20:56;;;;;;;18.55;7.57;;;;;;;;;;4983406;28;20376;-77
2021/06/26 08:23:23;;;;;;;18.35;7.97;;;;;;;;;;4987062;28;20096;-78
2021/06/26 08:25:49;;;;;;;19.85;8.02;;;;;;;;;;4985206;28;20038;-78
2021/06/26 08:28:15;;;;;;;18.63;8.25;;;;;;;;;;4983500;28;20018;-77
2021/06/26 08:30:42;;;;;;;21.48;8.35;;;;;;;;;;4985106;28;20413;-78
2021/06/26 08:33:08;;;;;;;24.65;8.57;;;;;;;;;;4984499;28;20050;-77
2021/06/26 08:35:34;;;;;;;16.15;7.40;;;;;;;;;;4987386;28;20023;-79
2021/06/26 08:38:00;;;;;;;23.95;7.35;;;;;;;;;;4987031;28;20098;-77
2021/06/26 08:40:26;;;;;;;15.85;6.57;;;;;;;;;;4987683;28;20021;-76
2021/06/26 08:42:53;;;;;;;16.90;6.80;;;;;;;;;;4985615;28;20021;-77
2021/06/26 08:45:20;;;;;;;15.75;7.15;;;;;;;;;;4980388;28;20041;-79
2021/06/26 08:47:56;;;;;;;17.48;7.95;;;;;;;;;;4985102;28;20036;-79
2021/06/26 08:50:24;;;;;;;14.73;6.00;;;;;;;;;;4982220;28;20023;-79
2021/06/26 08:52:50;;;;;;;24.13;7.88;;;;;;;;;;4985137;28;20026;-80
2021/06/26 08:55:17;;;;;;;22.58;8.02;;;;;;;;;;4984888;28;20022;-79
2021/06/26 08:57:44;;;;;;;21.13;8.07;;;;;;;;;;4985035;28;20026;-79
2021/06/26 09:00:12;;;;;;;19.40;8.32;;;;;;;;;;4984149;28;20031;-82
2021/06/26 09:02:38;;;;;;;18.58;7.05;;;;;;;;;;4985108;28;20026;-80
2021/06/26 09:05:05;;;;;;;23.35;7.53;;;;;;;;;;4986869;28;20035;-77
2021/06/26 09:07:32;;;;;;;16.88;6.45;;;;;;;;;;4987726;28;20147;-77
2021/06/26 09:09:58;;;;;;;17.10;7.40;;;;;;;;;;4983073;28;20025;-76
2021/06/26 09:12:26;;;;;;;21.92;7.72;;;;;;;;;;4983791;28;20613;-75
2021/06/26 09:14:53;;;;;;;20.42;8.23;;;;;;;;;;4986149;28;20025;-76
2021/06/26 09:17:30;;;;;;;16.55;6.88;;;;;;;;;;4985362;28;20367;-78
2021/06/26 09:19:58;;;;;;;13.45;6.15;;;;;;;;;;4985251;28;20125;-78
2021/06/26 09:22:24;;;;;;;22.10;7.60;;;;;;;;;;4980513;28;20057;-78
2021/06/26 09:24:51;;;;;;;18.15;6.72;;;;;;;;;;4994572;28;20026;-79
2021/06/26 09:27:19;;;;;;;15.02;6.70;;;;;;;;;;4983234;28;20046;-78
2021/06/26 09:29:51;;;;;;;16.08;5.80;;;;;;;;;;4984732;28;20018;-78
2021/06/26 09:32:22;;;;;;;17.48;6.65;;;;;;;;;;4983360;28;20030;-78
2021/06/26 09:34:48;;;;;;;20.15;7.95;;;;;;;;;;4983557;28;20077;-77
2021/06/26 09:37:33;;;;;;;15.73;6.75;;;;;;;;;;4984341;28;20057;-75
2021/06/26 09:40:01;;;;;;;18.48;7.10;;;;;;;;;;4982573;28;20106;-75
2021/06/26 09:42:28;;;;;;;22.08;7.18;;;;;;;;;;4986641;28;20034;-77
2021/06/26 09:45:04;;;;;;;20.13;6.35;;;;;;;;;;5000551;28;20033;-78
2021/06/26 09:47:32;;;;;;;17.83;7.07;;;;;;;;;;4987054;28;20128;-78
2021/06/26 09:50:09;;;;;;;21.52;7.32;;;;;;;;;;4981630;28;20060;-78
2021/06/26 09:52:38;;;;;;;22.33;7.20;;;;;;;;;;4999410;28;20105;-77
2021/06/26 09:55:23;;;;;;;18.35;6.93;;;;;;;;;;4979429;28;20145;-78
2021/06/26 09:57:50;;;;;;;18.67;7.57;;;;;;;;;;4982386;28;20046;-80
2021/06/26 10:00:17;;;;;;;21.05;7.88;;;;;;;;;;4990685;28;20063;-79
2021/06/26 10:02:44;;;;;;;17.70;7.63;;;;;;;;;;4990677;28;20026;-79
2021/06/26 10:05:11;;;;;;;21.05;8.50;;;;;;;;;;4973137;28;20058;-77
2021/06/26 10:07:41;;;;;;;16.27;7.88;;;;;;;;;;4984574;28;20030;-79
2021/06/26 10:10:10;;;;;;;22.63;8.55;;;;;;;;;;4983409;28;20046;-81
2021/06/26 10:12:36;;;;;;;17.33;7.13;;;;;;;;;;4986317;28;20026;-79
2021/06/26 10:15:04;;;;;;;27.02;8.55;;;;;;;;;;5002366;28;20172;-79
2021/06/26 10:17:30;;;;;;;19.40;8.05;;;;;;;;;;4991222;28;20109;-80
2021/06/26 10:19:57;;;;;;;20.40;8.25;;;;;;;;;;4999225;28;20030;-78
2021/06/26 10:22:23;;;;;;;18.77;7.10;;;;;;;;;;5000590;28;20018;-79
2021/06/26 10:24:50;;;;;;;17.60;7.10;;;;;;;;;;4991712;28;20069;-79
2021/06/26 10:27:23;;;;;;;18.08;7.78;;;;;;;;;;4992560;28;20073;-79
2021/06/26 10:29:50;;;;;;;21.23;7.70;;;;;;;;;;4967007;28;20125;-78
2021/06/26 10:32:17;;;;;;;17.85;7.03;;;;;;;;;;4988126;28;20125;-79
2021/06/26 10:34:48;;;;;;;17.70;6.63;;;;;;;;;;4988657;28;20026;-79
2021/06/26 10:37:19;;;;;;;14.93;6.80;;;;;;;;;;4994932;28;20377;-79
2021/06/26 10:39:45;;;;;;;11.88;6.05;;;;;;;;;;4991189;28;20022;-79
2021/06/26 10:42:14;;;;;;;18.60;7.55;;;;;;;;;;4993466;28;20109;-80
2021/06/26 10:44:40;;;;;;;15.88;6.90;;;;;;;;;;4989474;28;20845;-77
2021/06/26 10:47:06;;;;;;;18.05;7.35;;;;;;;;;;4972363;28;20109;-78
2021/06/26 10:49:32;;;;;;;13.07;6.25;;;;;;;;;;4984569;28;20057;-79
2021/06/26 10:52:09;;;;;;;21.58;7.57;;;;;;;;;;4989648;28;20060;-79
2021/06/26 10:54:36;;;;;;;21.35;7.63;;;;;;;;;;4977593;28;20018;-80
2021/06/26 10:57:03;;;;;;;19.63;6.90;;;;;;;;;;4987571;28;20049;-78
2021/06/26 10:59:29;;;;;;;17.52;6.82;;;;;;;;;;4995058;28;20129;-79
2021/06/26 11:01:57;;;;;;;14.98;6.95;;;;;;;;;;4985729;28;20400;-80
2021/06/26 11:04:23;;;;;;;15.77;6.90;;;;;;;;;;4988572;28;20614;-76
2021/06/26 11:06:51;;;;;;;18.75;7.03;;;;;;;;;;4979909;28;20026;-77
2021/06/26 11:09:17;;;;;;;17.77;6.90;;;;;;;;;;4990150;28;20033;-76
2021/06/26 11:11:44;;;;;;;13.65;6.45;;;;;;;;;;4988706;28;20046;-77
2021/06/26 11:14:13;;;;;;;16.70;6.75;;;;;;;;;;4997247;28;20189;-79
2021/06/26 11:16:41;;;;;;;17.70;6.35;;;;;;;;;;4974822;28;20041;-77
2021/06/26 11:19:08;;;;;;;15.88;7.40;;;;;;;;;;4983907;28;20033;-78
2021/06/26 11:21:37;;;;;;;23.92;8.30;;;;;;;;;;4993448;28;20105;-77
2021/06/26 11:24:05;;;;;;;16.15;7.78;;;;;;;;;;4982071;28;20041;-77
2021/06/26 11:26:31;;;;;;;22.15;7.95;;;;;;;;;;4967681;28;20042;-77
2021/06/26 11:28:58;;;;;;;20.05;8.10;;;;;;;;;;4967144;28;20033;-78
2021/06/26 11:31:24;;;;;;;17.67;6.93;;;;;;;;;;4982766;28;20076;-79
2021/06/26 11:33:51;;;;;;;16.85;7.70;;;;;;;;;;4984848;28;20037;-77
2021/06/26 11:36:19;;;;;;;14.68;6.80;;;;;;;;;;4993019;28;20041;-78
2021/06/26 11:38:45;;;;;;;14.27;7.00;;;;;;;;;;4997050;28;20044;-80
2021/06/26 11:41:12;;;;;;;19.27;7.88;;;;;;;;;;4997548;28;20029;-78
2021/06/26 11:43:47;;;;;;;24.73;7.65;;;;;;;;;;4984410;28;20046;-77
2021/06/26 11:46:13;;;;;;;23.42;7.13;;;;;;;;;;5000188;28;20026;-77
2021/06/26 11:48:39;;;;;;;17.52;6.95;;;;;;;;;;4998577;28;20501;-77
2021/06/26 11:51:06;;;;;;;23.58;8.90;;;;;;;;;;4981338;28;20033;-79
2021/06/26 11:53:36;;;;;;;22.23;7.82;;;;;;;;;;4999243;28;20022;-77
2021/06/26 11:56:02;;;;;;;28.48;8.15;;;;;;;;;;4971037;28;20166;-79
2021/06/26 11:58:48;;;;;;;35.40;8.98;;;;;;;;;;4973867;28;20624;-80
2021/06/26 12:01:15;;;;;;;19.27;8.23;;;;;;;;;;4955585;28;20026;-78
2021/06/26 12:03:42;;;;;;;27.70;8.20;;;;;;;;;;4963380;28;20022;-78
2021/06/26 12:06:08;;;;;;;21.77;7.65;;;;;;;;;;4992777;28;20026;-78
2021/06/26 12:08:41;;;;;;;24.48;7.90;;;;;;;;;;4992258;28;20019;-79
2021/06/26 12:11:10;;;;;;;22.77;7.75;;;;;;;;;;4994350;28;20046;-76
2021/06/26 12:13:36;;;;;;;23.35;8.48;;;;;;;;;;4996971;28;20431;-81
2021/06/26 12:16:03;;;;;;;15.35;7.18;;;;;;;;;;5003177;28;20388;-76
2021/06/26 12:18:29;;;;;;;25.35;8.45;;;;;;;;;;5004804;28;20032;-76
2021/06/26 12:20:57;;;;;;;32.42;11.18;;;;;;;;;;4997552;28;20026;-74
2021/06/26 12:23:26;;;;;;;25.05;9.73;;;;;;;;;;4998694;28;20042;-77
2021/06/26 12:25:52;;;;;;;24.38;7.88;;;;;;;;;;4969384;28;20129;-78
2021/06/26 12:28:19;;;;;;;28.65;9.15;;;;;;;;;;5000469;28;20076;-84
2021/06/26 12:30:45;;;;;;;23.33;7.53;;;;;;;;;;5004771;28;20453;-79
2021/06/26 12:33:14;;;;;;;18.45;7.75;;;;;;;;;;4977887;28;20073;-79
2021/06/26 12:35:40;;;;;;;21.23;9.00;;;;;;;;;;4981992;28;20084;-78
2021/06/26 12:38:07;;;;;;;23.55;8.93;;;;;;;;;;4983565;28;20032;-79
2021/06/26 12:40:35;;;;;;;14.23;8.15;;;;;;;;;;4999737;28;20581;-78
2021/06/26 12:43:06;;;;;;;17.50;7.88;;;;;;;;;;4969593;28;20221;-79
2021/06/26 12:45:49;;;;;;;18.02;8.43;;;;;;;;;;4986415;28;20030;-80
2021/06/26 12:48:19;;;;;;;20.13;8.23;;;;;;;;;;4998260;28;20040;-80
2021/06/26 12:50:59;;;;;;;13.50;7.53;;;;;;;;;;4981275;28;20124;-77
2021/06/26 12:53:35;;;;;;;17.92;7.90;;;;;;;;;;4999353;28;20026;-77
2021/06/26 12:56:02;;;;;;;19.67;8.18;;;;;;;;;;4974379;28;20536;-77
2021/06/26 12:58:29;;;;;;;18.70;7.78;;;;;;;;;;4984804;28;20119;-79
2021/06/26 13:00:56;;;;;;;23.02;8.38;;;;;;;;;;4986772;28;20022;-79
2021/06/26 13:03:22;;;;;;;22.48;8.82;;;;;;;;;;4984086;28;20026;-79
2021/06/26 13:05:49;;;;;;;24.60;9.13;;;;;;;;;;4968961;28;20027;-76
2021/06/26 13:08:17;;;;;;;23.42;9.30;;;;;;;;;;4967558;28;20030;-79
2021/06/26 13:10:51;;;;;;;19.27;8.50;;;;;;;;;;4986122;28;20506;-79
2021/06/26 13:13:17;;;;;;;24.15;8.13;;;;;;;;;;4989112;28;20049;-78
2021/06/26 13:15:44;;;;;;;20.13;8.35;;;;;;;;;;4964696;28;20085;-79
2021/06/26 13:18:10;;;;;;;21.25;8.77;;;;;;;;;;4971274;28;20030;-79
2021/06/26 13:20:46;;;;;;;23.65;9.63;;;;;;;;;;4987273;28;20243;-79
2021/06/26 13:23:14;;;;;;;17.83;8.93;;;;;;;;;;4967639;28;20093;-79
2021/06/26 13:25:40;;;;;;;26.15;9.13;;;;;;;;;;4970486;28;20082;-76
2021/06/26 13:28:07;;;;;;;18.33;7.72;;;;;;;;;;4965320;28;20038;-78
2021/06/26 13:30:33;;;;;;;25.08;8.93;;;;;;;;;;4982942;28;20038;-78
2021/06/26 13:32:59;;;;;;;21.50;7.85;;;;;;;;;;4964334;28;20026;-78
2021/06/26 13:35:26;;;;;;;29.55;9.82;;;;;;;;;;4965713;28;20026;-80
2021/06/26 13:37:52;;;;;;;19.08;8.68;;;;;;;;;;4981094;28;20085;-79
2021/06/26 13:40:19;;;;;;;26.55;9.25;;;;;;;;;;4983837;28;20022;-77
2021/06/26 13:42:45;;;;;;;19.52;8.70;;;;;;;;;;4974936;28;20038;-76
2021/06/26 13:45:11;;;;;;;21.27;8.15;;;;;;;;;;4977913;28;20386;-80
2021/06/26 13:47:37;;;;;;;23.55;8.02;;;;;;;;;;4983189;28;20045;-82
2021/06/26 13:50:04;;;;;;;24.20;8.80;;;;;;;;;;4965340;28;20122;-79
2021/06/26 13:52:31;;;;;;;22.73;9.15;;;;;;;;;;4983029;28;20034;-83
2021/06/26 13:54:58;;;;;;;19.90;7.95;;;;;;;;;;4981484;28;20027;-78
2021/06/26 13:57:24;;;;;;;18.27;8.75;;;;;;;;;;4983071;28;20026;-78
2021/06/26 13:59:50;;;;;;;20.92;8.10;;;;;;;;;;4983226;28;20024;-82
2021/06/26 14:02:17;;;;;;;18.33;7.95;;;;;;;;;;4982913;28;20065;-78
2021/06/26 14:04:44;;;;;;;23.88;8.90;;;;;;;;;;4963155;28;20548;-83
2021/06/26 14:07:10;;;;;;;24.08;8.50;;;;;;;;;;4983005;28;20343;-80
2021/06/26 14:09:36;;;;;;;30.90;9.57;;;;;;;;;;4981364;28;20057;-83
2021/06/26 14:12:02;;;;;;;22.70;8.68;;;;;;;;;;4965228;28;20399;-83
2021/06/26 14:14:28;;;;;;;15.77;8.07;;;;;;;;;;4966179;28;20029;-79
2021/06/26 14:16:55;;;;;;;28.40;9.93;;;;;;;;;;4982909;28;20050;-80
2021/06/26 14:19:22;;;;;;;27.48;8.32;;;;;;;;;;4964238;28;20451;-80
2021/06/26 14:21:48;;;;;;;22.38;8.95;;;;;;;;;;4981877;28;20026;-83
2021/06/26 14:24:14;;;;;;;26.10;9.57;;;;;;;;;;4981550;28;20030;-79
2021/06/26 14:26:40;;;;;;;17.02;8.18;;;;;;;;;;4981217;28;20546;-82